Time;durP1;ratioP1;P1;durP2;ratioP2;P2;SDS_P1;SDS_P2;PMS_P1;PMS_P2;Temp;Humidity;BMP_temperature;BMP_pressure;BME280_temperature;BME280_humidity;BME280_pressure;Samples;Min_cycle;Max_cycle;Signal;HPM_P1;HPM_P2
2023/09/07 00:01:18;;;;;;;8.82;5.50;;;22.80;99.90;;;;;;4947664;29;20432;-89
2023/09/07 00:03:44;;;;;;;7.03;6.35;;;22.90;99.90;;;;;;4940624;29;20027;-89
2023/09/07 00:06:10;;;;;;;6.80;6.25;;;23.00;99.90;;;;;;4943857;29;20034;-89
2023/09/07 00:08:36;;;;;;;8.15;6.47;;;22.80;99.90;;;;;;4938834;29;20396;-88
2023/09/07 00:11:11;;;;;;;6.72;6.18;;;22.80;99.90;;;;;;4950417;29;20387;-88
2023/09/07 00:13:37;;;;;;;7.10;6.40;;;22.70;99.90;;;;;;4949324;29;20131;-88
2023/09/07 00:16:04;;;;;;;7.95;5.95;;;22.70;99.90;;;;;;4948754;29;20035;-89
2023/09/07 00:18:30;;;;;;;7.00;6.20;;;22.80;99.90;;;;;;4940323;29;20028;-89
2023/09/07 00:20:56;;;;;;;7.97;7.35;;;22.70;99.90;;;;;;4936890;29;20027;-89
2023/09/07 00:23:22;;;;;;;8.02;7.40;;;22.70;99.90;;;;;;4943087;29;20622;-89
2023/09/07 00:25:48;;;;;;;10.38;7.18;;;22.70;99.90;;;;;;4946893;29;20023;-89
2023/09/07 00:28:14;;;;;;;7.47;6.40;;;22.60;99.90;;;;;;4943493;29;20059;-90
2023/09/07 00:30:40;;;;;;;8.70;6.82;;;22.60;99.90;;;;;;4939148;29;20421;-89
2023/09/07 00:33:06;;;;;;;7.80;7.07;;;22.60;99.90;;;;;;4943393;29;20030;-90
2023/09/07 00:35:31;;;;;;;8.57;7.07;;;22.60;99.90;;;;;;4949138;29;20027;-89
2023/09/07 00:37:57;;;;;;;12.25;6.93;;;22.50;99.90;;;;;;4942426;29;20032;-88
2023/09/07 00:40:22;;;;;;;11.13;7.22;;;22.50;99.90;;;;;;4943531;29;20031;-89
2023/09/07 00:42:48;;;;;;;7.35;6.70;;;22.50;99.90;;;;;;4944878;29;20409;-89
2023/09/07 00:45:15;;;;;;;9.88;7.55;;;22.50;99.90;;;;;;4955368;29;20054;-88
2023/09/07 00:47:41;;;;;;;8.57;7.72;;;22.50;99.90;;;;;;4938512;29;20023;-88
2023/09/07 00:50:07;;;;;;;7.82;6.93;;;22.40;99.90;;;;;;4947003;29;20063;-89
2023/09/07 00:52:34;;;;;;;9.45;8.27;;;22.40;99.90;;;;;;4938035;29;20027;-89
2023/09/07 00:55:02;;;;;;;12.02;8.63;;;22.40;99.90;;;;;;4949814;29;20043;-89
2023/09/07 00:57:27;;;;;;;15.52;8.48;;;22.20;99.90;;;;;;4941147;29;20038;-88
2023/09/07 00:59:54;;;;;;;8.45;7.65;;;22.30;99.90;;;;;;4940094;29;20492;-89
2023/09/07 01:02:19;;;;;;;7.95;7.20;;;22.30;99.90;;;;;;4952133;29;20042;-89
2023/09/07 01:04:45;;;;;;;9.68;8.18;;;22.30;99.90;;;;;;4956057;29;20023;-89
2023/09/07 01:07:30;;;;;;;9.20;8.23;;;22.30;99.90;;;;;;4945847;29;20480;-88
2023/09/07 01:09:59;;;;;;;8.63;7.82;;;22.20;99.90;;;;;;4945301;29;20201;-88
2023/09/07 01:12:24;;;;;;;9.50;8.55;;;22.10;99.90;;;;;;4940239;29;20130;-89
2023/09/07 01:14:50;;;;;;;9.15;8.32;;;22.00;99.90;;;;;;4944151;29;20602;-89
2023/09/07 01:17:16;;;;;;;12.60;8.52;;;22.10;99.90;;;;;;4938165;29;20035;-89
2023/09/07 01:19:42;;;;;;;9.82;8.18;;;22.00;99.90;;;;;;4943165;29;20028;-89
2023/09/07 01:22:09;;;;;;;11.82;8.00;;;22.00;99.90;;;;;;4943359;29;20079;-89
2023/09/07 01:24:37;;;;;;;8.98;8.07;;;22.20;99.90;;;;;;4954768;29;20023;-89
2023/09/07 01:27:04;;;;;;;12.55;9.15;;;21.90;99.90;;;;;;4945071;29;20031;-89
2023/09/07 01:29:30;;;;;;;9.75;8.85;;;21.90;99.90;;;;;;4954402;29;20558;-88
2023/09/07 01:31:56;;;;;;;9.48;8.48;;;21.90;99.90;;;;;;4944220;29;20035;-88
2023/09/07 01:34:23;;;;;;;10.27;9.27;;;21.90;99.90;;;;;;4938242;29;20369;-88
2023/09/07 01:36:49;;;;;;;11.80;9.40;;;21.90;99.90;;;;;;4944902;28;20059;-88
2023/09/07 01:39:14;;;;;;;10.65;9.32;;;21.90;99.90;;;;;;4939326;29;20059;-88
2023/09/07 01:41:40;;;;;;;10.70;9.70;;;21.80;99.90;;;;;;4953308;29;20082;-88
2023/09/07 01:44:06;;;;;;;10.65;9.65;;;21.80;99.90;;;;;;4948787;29;20556;-88
2023/09/07 01:46:31;;;;;;;9.93;9.05;;;21.80;99.90;;;;;;4946805;29;20038;-88
2023/09/07 01:48:57;;;;;;;11.68;10.57;;;21.70;99.90;;;;;;4970263;28;20031;-88
2023/09/07 01:51:23;;;;;;;10.43;9.43;;;21.60;99.90;;;;;;4977393;28;20718;-88
2023/09/07 01:53:48;;;;;;;10.07;8.82;;;21.50;99.90;;;;;;4954127;28;20039;-89
2023/09/07 01:56:18;;;;;;;11.30;9.90;;;21.50;99.90;;;;;;4948531;29;20031;-88
2023/09/07 01:58:43;;;;;;;10.63;9.60;;;21.40;99.90;;;;;;4948041;29;20083;-88
2023/09/07 02:01:24;;;;;;;10.32;9.32;;;21.30;99.90;;;;;;4949721;29;20031;-89
2023/09/07 02:03:49;;;;;;;12.27;10.57;;;21.30;99.90;;;;;;4950240;29;20040;-89
2023/09/07 02:06:15;;;;;;;11.48;9.65;;;21.50;99.90;;;;;;4950582;29;20113;-89
2023/09/07 02:08:40;;;;;;;10.73;9.82;;;21.30;99.90;;;;;;4955866;29;20218;-89
2023/09/07 02:11:06;;;;;;;13.45;10.20;;;21.50;99.90;;;;;;4946250;29;20032;-89
2023/09/07 02:13:32;;;;;;;10.82;9.90;;;21.30;99.90;;;;;;4942259;29;20035;-89
2023/09/07 02:15:57;;;;;;;11.45;10.38;;;21.40;99.90;;;;;;4950875;29;20067;-88
2023/09/07 02:18:23;;;;;;;11.00;9.90;;;21.40;99.90;;;;;;4941151;29;20114;-88
2023/09/07 02:20:49;;;;;;;10.55;9.65;;;21.40;99.90;;;;;;4942390;29;20035;-92
2023/09/07 02:23:17;;;;;;;11.40;10.30;;;21.30;99.90;;;;;;4944526;29;20023;-93
2023/09/07 02:25:43;;;;;;;13.40;10.15;;;21.30;99.90;;;;;;4949638;29;20038;-89
2023/09/07 02:28:08;;;;;;;16.55;10.13;;;21.20;99.90;;;;;;4936437;29;20034;-88
2023/09/07 02:30:34;;;;;;;11.40;9.93;;;21.20;99.90;;;;;;4948670;29;20039;-88
2023/09/07 02:32:59;;;;;;;13.30;10.73;;;21.20;99.90;;;;;;4935903;29;20054;-88
2023/09/07 02:35:25;;;;;;;22.63;11.57;;;21.20;99.90;;;;;;4941687;29;20114;-88
2023/09/07 02:37:50;;;;;;;12.35;11.05;;;21.10;99.90;;;;;;4947743;29;20392;-88
2023/09/07 02:40:16;;;;;;;12.50;11.32;;;21.10;99.90;;;;;;4953436;29;20499;-88
2023/09/07 02:42:45;;;;;;;13.98;11.13;;;21.10;99.90;;;;;;4941381;29;20019;-88
2023/09/07 02:45:11;;;;;;;12.45;11.23;;;21.10;99.90;;;;;;4951133;29;20135;-89
2023/09/07 02:47:38;;;;;;;17.70;12.27;;;21.10;99.90;;;;;;4948719;28;20039;-87
2023/09/07 02:50:05;;;;;;;13.00;11.50;;;21.00;99.90;;;;;;4948723;29;20039;-88
2023/09/07 02:52:30;;;;;;;14.43;12.10;;;21.00;99.90;;;;;;4946622;29;20024;-88
2023/09/07 02:54:56;;;;;;;13.88;11.85;;;21.10;99.90;;;;;;4952416;29;20514;-88
2023/09/07 02:57:22;;;;;;;12.73;11.73;;;21.00;99.90;;;;;;4937494;29;20019;-88
2023/09/07 02:59:47;;;;;;;14.15;12.70;;;21.00;99.90;;;;;;4941133;29;20027;-89
2023/09/07 03:02:13;;;;;;;13.80;11.93;;;21.00;99.90;;;;;;4943030;29;20401;-88
2023/09/07 03:04:38;;;;;;;14.15;12.75;;;21.00;99.90;;;;;;4937359;29;20034;-89
2023/09/07 03:07:04;;;;;;;13.82;12.43;;;21.00;99.90;;;;;;4945931;29;20030;-89
2023/09/07 03:09:29;;;;;;;12.75;11.43;;;21.00;99.90;;;;;;4952304;29;20031;-89
2023/09/07 03:11:55;;;;;;;12.80;11.73;;;20.90;99.90;;;;;;4939889;29;20148;-89
2023/09/07 03:14:20;;;;;;;14.40;12.65;;;21.00;99.90;;;;;;4946044;29;20115;-89
2023/09/07 03:16:50;;;;;;;13.77;12.52;;;20.90;99.90;;;;;;4936177;29;20031;-89
2023/09/07 03:19:15;;;;;;;13.60;12.40;;;20.90;99.90;;;;;;4949037;29;20028;-89
2023/09/07 03:21:41;;;;;;;13.82;12.45;;;20.90;99.90;;;;;;4934940;29;20407;-89
2023/09/07 03:24:07;;;;;;;14.10;12.60;;;20.90;99.90;;;;;;4945331;29;20539;-89
2023/09/07 03:26:32;;;;;;;15.32;13.77;;;20.90;99.90;;;;;;4943592;29;20043;-89
2023/09/07 03:28:58;;;;;;;14.10;12.70;;;20.90;99.90;;;;;;4944848;29;20527;-89
2023/09/07 03:31:24;;;;;;;16.15;13.43;;;20.90;99.90;;;;;;4939977;29;20402;-89
2023/09/07 03:33:49;;;;;;;13.88;12.52;;;20.90;99.90;;;;;;4945025;29;20038;-89
2023/09/07 03:36:15;;;;;;;14.70;12.85;;;20.90;99.90;;;;;;4939973;29;20373;-88
2023/09/07 03:38:42;;;;;;;16.77;13.20;;;20.80;99.90;;;;;;4943505;29;20114;-88
2023/09/07 03:41:08;;;;;;;15.93;12.57;;;20.70;99.90;;;;;;4955182;29;20046;-94
2023/09/07 03:43:33;;;;;;;18.55;13.55;;;20.80;99.90;;;;;;4939306;29;20479;-89
2023/09/07 03:45:59;;;;;;;15.73;14.05;;;20.70;99.90;;;;;;4944958;29;20058;-89
2023/09/07 03:48:24;;;;;;;19.30;13.90;;;20.60;99.90;;;;;;4947093;29;20049;-89
2023/09/07 03:50:50;;;;;;;14.82;13.25;;;20.90;99.90;;;;;;4944952;29;20027;-90
2023/09/07 03:53:16;;;;;;;19.77;14.43;;;20.60;99.90;;;;;;4947299;29;20027;-89
2023/09/07 03:55:43;;;;;;;19.88;13.63;;;20.60;99.90;;;;;;4941132;29;20036;-88
2023/09/07 03:58:10;;;;;;;14.95;13.65;;;20.60;99.90;;;;;;4948686;29;20042;-89
2023/09/07 04:00:41;;;;;;;16.00;13.80;;;20.60;99.90;;;;;;4953134;29;20086;-88
2023/09/07 04:03:10;;;;;;;15.57;13.85;;;20.50;99.90;;;;;;4946585;29;20701;-88
2023/09/07 04:05:38;;;;;;;16.73;14.80;;;20.60;99.90;;;;;;4940892;29;20031;-88
2023/09/07 04:08:05;;;;;;;17.13;13.90;;;20.50;99.90;;;;;;4942035;29;20496;-89
2023/09/07 04:10:30;;;;;;;16.38;13.60;;;20.50;99.90;;;;;;4953519;29;20031;-89
2023/09/07 04:12:56;;;;;;;15.93;13.95;;;20.50;99.90;;;;;;4953109;29;20031;-89
2023/09/07 04:15:21;;;;;;;17.40;13.88;;;20.50;99.90;;;;;;4945413;29;20031;-89
2023/09/07 04:17:47;;;;;;;15.52;13.95;;;20.50;99.90;;;;;;4943026;29;20034;-88
2023/09/07 04:20:12;;;;;;;16.55;13.07;;;20.60;99.90;;;;;;4952582;29;20042;-88
2023/09/07 04:22:40;;;;;;;15.88;14.20;;;20.40;99.90;;;;;;4952084;29;20607;-89
2023/09/07 04:25:06;;;;;;;15.55;13.93;;;20.40;99.90;;;;;;4949635;29;20024;-89
2023/09/07 04:27:31;;;;;;;15.10;13.27;;;20.30;99.90;;;;;;4939543;29;20169;-88
2023/09/07 04:29:57;;;;;;;21.48;14.40;;;20.80;99.90;;;;;;4957462;29;20063;-89
2023/09/07 04:32:22;;;;;;;15.48;13.32;;;20.30;99.90;;;;;;4957305;29;20550;-90
2023/09/07 04:34:53;;;;;;;16.30;14.02;;;20.30;99.90;;;;;;4950391;29;20035;-88
2023/09/07 04:37:19;;;;;;;18.40;13.73;;;20.40;99.90;;;;;;4957334;29;20047;-89
2023/09/07 04:39:45;;;;;;;17.02;14.68;;;20.50;99.90;;;;;;4954913;29;20070;-88
2023/09/07 04:42:10;;;;;;;15.48;13.50;;;20.30;99.90;;;;;;4955464;29;20479;-88
2023/09/07 04:44:36;;;;;;;17.80;13.52;;;20.30;99.90;;;;;;4946081;29;20032;-88
2023/09/07 04:47:01;;;;;;;18.00;15.00;;;20.30;99.90;;;;;;4948648;29;20027;-89
2023/09/07 04:49:27;;;;;;;17.67;14.20;;;20.30;99.90;;;;;;4956777;29;20491;-87
2023/09/07 04:51:54;;;;;;;15.10;13.20;;;20.30;99.90;;;;;;4952414;29;20115;-88
2023/09/07 04:54:19;;;;;;;19.33;14.60;;;20.30;99.90;;;;;;4948184;29;20035;-89
2023/09/07 04:56:45;;;;;;;16.30;14.65;;;20.30;99.90;;;;;;4958379;29;20031;-88
2023/09/07 04:59:11;;;;;;;16.48;13.50;;;20.80;99.90;;;;;;4949624;28;20031;-87
2023/09/07 05:01:36;;;;;;;15.52;13.95;;;20.60;99.90;;;;;;4969611;28;20035;-88
2023/09/07 05:04:03;;;;;;;16.73;15.02;;;20.20;99.90;;;;;;4971465;28;20063;-88
2023/09/07 05:06:29;;;;;;;18.45;14.27;;;20.20;99.90;;;;;;4958135;28;20094;-88
2023/09/07 05:08:55;;;;;;;16.10;14.40;;;20.20;99.90;;;;;;4939613;29;20048;-89
2023/09/07 05:11:20;;;;;;;16.50;14.73;;;20.10;99.90;;;;;;4949562;28;20027;-89
2023/09/07 05:13:46;;;;;;;15.23;13.73;;;20.20;99.90;;;;;;4937396;29;20473;-89
2023/09/07 05:16:11;;;;;;;16.52;13.98;;;20.20;99.90;;;;;;4945672;29;20070;-90
2023/09/07 05:18:37;;;;;;;20.30;14.15;;;20.10;99.90;;;;;;4956059;29;20035;-88
2023/09/07 05:21:12;;;;;;;16.42;14.63;;;20.10;99.90;;;;;;4944337;29;20035;-87
2023/09/07 05:23:37;;;;;;;15.90;14.00;;;20.10;99.90;;;;;;4948690;29;20069;-88
2023/09/07 05:26:03;;;;;;;16.00;14.10;;;20.10;99.90;;;;;;4949326;29;20333;-88
2023/09/07 05:28:29;;;;;;;15.50;13.90;;;20.00;99.90;;;;;;4937094;29;20048;-88
2023/09/07 05:30:54;;;;;;;15.32;13.40;;;20.00;99.90;;;;;;4944547;29;20069;-89
2023/09/07 05:33:20;;;;;;;15.23;13.40;;;20.00;99.90;;;;;;4954250;29;20023;-89
2023/09/07 05:35:45;;;;;;;14.88;13.38;;;20.00;99.90;;;;;;4947226;29;20027;-89
2023/09/07 05:38:11;;;;;;;15.02;13.40;;;20.00;99.90;;;;;;4956163;29;20058;-90
2023/09/07 05:40:41;;;;;;;15.07;13.52;;;20.00;99.90;;;;;;4956215;29;20038;-90
2023/09/07 05:43:07;;;;;;;20.90;13.43;;;20.00;99.90;;;;;;4949757;29;20035;-91
2023/09/07 05:45:39;;;;;;;15.90;14.20;;;20.00;99.90;;;;;;4952144;29;20043;-90
2023/09/07 05:48:06;;;;;;;15.52;13.70;;;20.00;99.90;;;;;;4949154;29;20035;-91
2023/09/07 05:50:36;;;;;;;23.48;13.98;;;20.00;99.90;;;;;;4951552;29;20031;-89
2023/09/07 05:53:02;;;;;;;14.45;13.13;;;20.10;99.90;;;;;;4953349;29;20066;-91
2023/09/07 05:55:28;;;;;;;15.07;13.55;;;20.10;99.90;;;;;;4946473;29;20050;-91
2023/09/07 05:57:57;;;;;;;26.98;14.85;;;20.10;99.90;;;;;;4952720;29;20484;-91
2023/09/07 06:00:23;;;;;;;16.42;12.15;;;20.00;99.90;;;;;;4955976;29;20027;-90
2023/09/07 06:02:50;;;;;;;19.83;14.63;;;20.10;99.90;;;;;;4943988;29;20515;-91
2023/09/07 06:05:16;;;;;;;18.70;14.25;;;20.10;99.90;;;;;;4952548;29;20023;-92
2023/09/07 06:07:42;;;;;;;18.85;13.98;;;20.00;99.90;;;;;;4954340;29;20050;-92
2023/09/07 06:10:07;;;;;;;18.15;13.00;;;20.20;99.90;;;;;;4942206;29;20547;-91
2023/09/07 06:12:33;;;;;;;17.38;12.93;;;20.20;99.90;;;;;;4955820;29;20027;-92
2023/09/07 06:15:03;;;;;;;18.73;14.20;;;20.30;99.90;;;;;;4941805;29;20028;-91
2023/09/07 06:17:29;;;;;;;17.75;13.48;;;20.20;99.90;;;;;;4957613;29;20031;-93
2023/09/07 06:19:55;;;;;;;17.13;12.70;;;20.30;99.90;;;;;;4965481;23;20066;-91
2023/09/07 06:22:20;;;;;;;15.70;12.57;;;20.70;99.90;;;;;;4969459;28;20027;-92
2023/09/07 06:24:46;;;;;;;13.25;11.88;;;20.80;99.90;;;;;;4975983;28;20402;-89
2023/09/07 06:27:11;;;;;;;15.55;12.60;;;20.50;99.90;;;;;;4969297;28;20459;-90
2023/09/07 06:29:37;;;;;;;14.43;13.05;;;20.30;99.90;;;;;;4975451;28;20150;-89
2023/09/07 06:32:03;;;;;;;18.00;13.20;;;20.40;99.90;;;;;;4963420;28;20035;-90
2023/09/07 06:34:28;;;;;;;13.07;11.77;;;20.40;99.90;;;;;;4972166;28;20026;-89
2023/09/07 06:36:54;;;;;;;16.17;12.57;;;20.40;99.90;;;;;;4972850;28;20531;-91
2023/09/07 06:39:20;;;;;;;14.07;12.25;;;20.50;99.90;;;;;;4964507;28;20030;-91
2023/09/07 06:41:47;;;;;;;15.70;12.48;;;20.50;99.90;;;;;;4971270;28;20042;-89
2023/09/07 06:44:12;;;;;;;15.63;12.30;;;20.50;99.90;;;;;;4971125;28;20082;-91
2023/09/07 06:46:38;;;;;;;14.10;12.70;;;20.50;99.90;;;;;;4970469;28;20447;-91
2023/09/07 06:49:03;;;;;;;14.88;11.85;;;20.60;99.90;;;;;;4970617;28;20043;-91
2023/09/07 06:51:31;;;;;;;21.98;12.35;;;20.50;99.90;;;;;;4965238;28;20110;-90
2023/09/07 06:53:57;;;;;;;16.23;12.57;;;20.60;99.90;;;;;;4959839;29;20498;-89
2023/09/07 06:56:23;;;;;;;17.35;12.13;;;20.60;99.90;;;;;;4962904;28;20035;-89
2023/09/07 06:58:49;;;;;;;13.90;12.20;;;20.60;99.90;;;;;;4974592;28;20062;-89
2023/09/07 07:01:15;;;;;;;17.83;11.73;;;20.70;99.90;;;;;;4974093;28;20026;-90
2023/09/07 07:03:41;;;;;;;17.20;12.48;;;20.70;99.90;;;;;;4976328;28;20031;-90
2023/09/07 07:06:07;;;;;;;15.50;11.65;;;21.00;99.90;;;;;;4979296;28;20357;-91
2023/09/07 07:08:32;;;;;;;13.07;10.57;;;20.80;99.90;;;;;;4972366;28;20146;-91
2023/09/07 07:10:58;;;;;;;15.85;11.82;;;20.80;99.90;;;;;;4976701;28;20066;-92
2023/09/07 07:13:23;;;;;;;15.45;11.63;;;20.90;99.90;;;;;;4971352;28;20110;-90
2023/09/07 07:15:49;;;;;;;15.43;11.95;;;20.90;99.90;;;;;;4969887;28;20058;-90
2023/09/07 07:18:14;;;;;;;14.60;12.00;;;20.90;99.90;;;;;;4974983;28;20026;-88
2023/09/07 07:20:43;;;;;;;16.52;11.50;;;20.90;99.90;;;;;;4974092;28;20527;-93
2023/09/07 07:23:09;;;;;;;20.45;11.18;;;21.00;99.90;;;;;;4975003;28;20031;-93
2023/09/07 07:25:35;;;;;;;15.32;10.48;;;21.00;99.90;;;;;;4973029;28;20093;-89
2023/09/07 07:28:05;;;;;;;11.70;10.65;;;21.00;99.90;;;;;;4972877;28;20461;-85
2023/09/07 07:30:34;;;;;;;11.63;9.93;;;21.00;99.90;;;;;;4967819;28;20085;-87
2023/09/07 07:33:00;;;;;;;12.15;9.13;;;21.10;99.90;;;;;;4961570;28;20427;-87
2023/09/07 07:35:46;;;;;;;11.18;9.98;;;21.10;99.90;;;;;;4956076;29;20023;-88
2023/09/07 07:38:14;;;;;;;10.80;9.20;;;21.50;99.90;;;;;;4960437;28;20511;-88
2023/09/07 07:40:56;;;;;;;11.30;9.43;;;21.20;99.90;;;;;;4977495;28;20023;-85
2023/09/07 07:43:44;;;;;;;10.93;9.80;;;22.10;99.90;;;;;;4960826;28;20031;-90
2023/09/07 07:46:09;;;;;;;15.95;9.80;;;21.40;99.90;;;;;;4968323;28;20431;-87
2023/09/07 07:48:38;;;;;;;11.27;8.82;;;21.40;99.90;;;;;;4970126;28;20062;-87
2023/09/07 07:51:28;;;;;;;10.82;9.05;;;21.80;99.90;;;;;;4971556;28;20128;-90
2023/09/07 07:54:22;;;;;;;12.45;8.15;;;21.50;99.90;;;;;;4958451;23;1306903;-90
2023/09/07 07:57:13;;;;;;;12.05;10.05;;;21.60;99.90;;;;;;4920330;29;20047;-83
2023/09/07 07:59:39;;;;;;;15.30;10.45;;;21.60;99.90;;;;;;4936654;29;20119;-84
2023/09/07 08:02:05;;;;;;;14.57;11.25;;;21.70;99.90;;;;;;4950773;29;20114;-84
2023/09/07 08:04:32;;;;;;;20.27;9.60;;;21.70;99.90;;;;;;4946378;29;20039;-83
2023/09/07 08:07:03;;;;;;;18.33;10.18;;;21.80;99.90;;;;;;4957578;29;20051;-86
2023/09/07 08:09:29;;;;;;;12.00;9.18;;;21.80;99.90;;;;;;4965754;28;20059;-84
2023/09/07 08:11:55;;;;;;;16.58;9.23;;;21.90;99.90;;;;;;4961305;29;20522;-89
2023/09/07 08:14:22;;;;;;;10.80;9.18;;;22.00;99.90;;;;;;4954246;29;20039;-91
2023/09/07 08:16:48;;;;;;;9.95;8.63;;;22.00;99.90;;;;;;4953739;29;20103;-86
2023/09/07 08:19:14;;;;;;;14.48;8.77;;;22.60;99.90;;;;;;4948066;29;20118;-85
2023/09/07 08:21:41;;;;;;;11.38;10.13;;;22.10;99.90;;;;;;4943887;29;20024;-85
2023/09/07 08:24:07;;;;;;;13.20;9.23;;;22.10;99.90;;;;;;4947777;29;20106;-85
2023/09/07 08:26:33;;;;;;;9.27;8.35;;;22.10;99.90;;;;;;4953318;29;20059;-83
2023/09/07 08:28:59;;;;;;;11.02;8.25;;;22.20;99.90;;;;;;4955448;29;20047;-87
2023/09/07 08:31:26;;;;;;;8.82;7.85;;;22.20;99.90;;;;;;4942192;29;20026;-81
2023/09/07 08:33:51;;;;;;;10.50;8.30;;;22.30;99.90;;;;;;4949645;29;20114;-83
2023/09/07 08:36:17;;;;;;;12.75;7.65;;;22.30;99.90;;;;;;4952721;29;20107;-90
2023/09/07 08:38:43;;;;;;;12.68;7.60;;;22.40;99.90;;;;;;4950222;29;20380;-84
2023/09/07 08:41:08;;;;;;;11.48;6.35;;;22.40;99.90;;;;;;4939693;29;20039;-87
2023/09/07 08:43:40;;;;;;;7.63;6.93;;;22.40;99.90;;;;;;4936383;29;20028;-88
2023/09/07 08:46:14;;;;;;;10.68;7.78;;;22.50;99.90;;;;;;4947395;28;20059;-87
2023/09/07 08:48:42;;;;;;;7.22;6.05;;;22.50;99.90;;;;;;4937954;29;20115;-87
2023/09/07 08:51:09;;;;;;;6.75;6.15;;;22.60;99.90;;;;;;4954331;29;20392;-88
2023/09/07 08:53:36;;;;;;;8.63;6.55;;;22.60;99.90;;;;;;4946784;29;20518;-87
2023/09/07 08:56:03;;;;;;;9.48;6.82;;;22.70;99.90;;;;;;4956095;29;20059;-88
2023/09/07 08:58:29;;;;;;;7.45;6.85;;;22.70;99.90;;;;;;4956899;29;20028;-88
2023/09/07 09:00:57;;;;;;;10.90;6.07;;;22.70;99.90;;;;;;4948497;29;20039;-88
2023/09/07 09:03:23;;;;;;;9.88;6.88;;;22.80;99.90;;;;;;4938030;29;20038;-88
2023/09/07 09:05:50;;;;;;;7.07;5.90;;;22.80;99.90;;;;;;4949030;29;20039;-88
2023/09/07 09:08:20;;;;;;;9.82;6.43;;;23.20;99.90;;;;;;4945052;29;20503;-87
2023/09/07 09:10:46;;;;;;;9.15;6.20;;;22.90;99.90;;;;;;4953537;29;20035;-87
2023/09/07 09:13:11;;;;;;;6.43;5.78;;;22.90;99.90;;;;;;4957399;29;20023;-87
2023/09/07 09:15:37;;;;;;;8.35;6.15;;;23.00;99.90;;;;;;4955305;29;20035;-87
2023/09/07 09:18:13;;;;;;;8.35;6.45;;;23.00;99.90;;;;;;4947878;29;20024;-87
2023/09/07 09:20:39;;;;;;;6.30;5.63;;;23.10;99.90;;;;;;4943843;29;20023;-88
2023/09/07 09:23:07;;;;;;;7.95;5.60;;;23.10;99.90;;;;;;4960550;29;20028;-87
2023/09/07 09:25:32;;;;;;;8.15;5.53;;;23.20;99.90;;;;;;4957489;29;20028;-87
2023/09/07 09:27:58;;;;;;;7.78;6.13;;;23.20;99.90;;;;;;4955215;29;20110;-87
2023/09/07 09:30:25;;;;;;;10.38;5.68;;;23.20;99.90;;;;;;4950835;29;20039;-86
2023/09/07 09:32:51;;;;;;;7.18;6.30;;;23.30;99.90;;;;;;4940184;29;20057;-90
2023/09/07 09:35:17;;;;;;;8.35;5.50;;;23.40;99.90;;;;;;4938778;29;20031;-85
2023/09/07 09:37:48;;;;;;;8.00;6.03;;;23.40;99.90;;;;;;4952291;29;20023;-85
2023/09/07 09:40:14;;;;;;;7.80;5.70;;;23.50;99.90;;;;;;4959939;29;20101;-90
2023/09/07 09:42:43;;;;;;;6.93;5.05;;;23.50;99.90;;;;;;4956894;29;20379;-87
2023/09/07 09:45:10;;;;;;;8.00;5.87;;;23.50;99.90;;;;;;4956746;29;20055;-85
2023/09/07 09:47:41;;;;;;;15.43;5.80;;;23.60;99.90;;;;;;4939991;29;20036;-88
2023/09/07 09:50:10;;;;;;;8.88;6.30;;;23.70;99.90;;;;;;4945554;29;20071;-86
2023/09/07 09:52:57;;;;;;;6.85;6.15;;;23.70;99.90;;;;;;4954790;29;20024;-86
2023/09/07 09:55:24;;;;;;;7.20;6.00;;;23.80;99.90;;;;;;4949759;29;20086;-86
2023/09/07 09:57:50;;;;;;;6.03;5.47;;;23.90;99.90;;;;;;4943344;29;20031;-87
2023/09/07 10:00:31;;;;;;;6.90;5.93;;;23.90;99.90;;;;;;4957845;29;20023;-85
2023/09/07 10:06:18;;;;;;;6.18;5.35;;;24.00;99.90;;;;;;4904550;29;20063;-91
2023/09/07 10:09:13;;;;;;;5.32;4.82;;;24.10;99.90;;;;;;4936492;29;20039;-86
2023/09/07 10:11:40;;;;;;;5.38;4.90;;;24.10;99.90;;;;;;4952338;29;20035;-85
2023/09/07 10:14:07;;;;;;;5.40;4.90;;;24.10;99.90;;;;;;4946165;29;20368;-84
2023/09/07 10:16:47;;;;;;;7.55;4.63;;;24.10;99.90;;;;;;4950462;29;20034;-84
2023/09/07 10:19:21;;;;;;;7.22;5.05;;;24.20;99.90;;;;;;4955277;29;20043;-85
2023/09/07 10:21:47;;;;;;;5.28;4.88;;;24.30;99.90;;;;;;4951436;29;20027;-86
2023/09/07 10:24:27;;;;;;;6.18;4.95;;;24.40;99.90;;;;;;4936566;29;20038;-85
2023/09/07 10:26:59;;;;;;;6.05;4.82;;;24.40;99.90;;;;;;4953350;29;20475;-89
2023/09/07 10:29:25;;;;;;;6.53;4.70;;;24.50;99.90;;;;;;4955521;29;20130;-84
2023/09/07 10:31:51;;;;;;;7.15;5.35;;;24.50;99.90;;;;;;4942994;29;20159;-83
2023/09/07 10:34:17;;;;;;;5.35;4.85;;;24.50;99.90;;;;;;4952078;29;20035;-86
2023/09/07 10:36:43;;;;;;;4.80;4.35;;;24.60;99.90;;;;;;4957278;29;20030;-82
2023/09/07 10:39:09;;;;;;;7.88;4.53;;;24.60;99.90;;;;;;4945401;29;20552;-88
2023/09/07 10:41:45;;;;;;;5.88;4.50;;;24.80;99.90;;;;;;4940080;29;20023;-91
2023/09/07 10:44:12;;;;;;;8.75;4.38;;;24.80;99.90;;;;;;4937156;29;20042;-90
2023/09/07 10:46:39;;;;;;;4.93;4.40;;;24.80;99.90;;;;;;4945100;29;20026;-88
2023/09/07 10:49:09;;;;;;;4.03;3.63;;;24.90;99.90;;;;;;4945784;29;20506;-90
2023/09/07 10:51:46;;;;;;;5.70;4.13;;;24.90;99.90;;;;;;4937052;29;20031;-89
2023/09/07 10:54:23;;;;;;;5.30;4.35;;;25.00;99.90;;;;;;4942082;29;20111;-90
2023/09/07 10:56:50;;;;;;;5.47;4.60;;;25.00;99.90;;;;;;4939959;29;20028;-89
2023/09/07 10:59:16;;;;;;;7.13;4.00;;;25.10;99.90;;;;;;4955567;29;20488;-90
2023/09/07 11:01:44;;;;;;;4.78;4.03;;;25.10;99.90;;;;;;4943264;29;20475;-88
2023/09/07 11:04:12;;;;;;;6.78;3.92;;;25.10;99.90;;;;;;4975370;28;20035;-85
2023/09/07 11:06:40;;;;;;;7.25;4.60;;;25.20;99.90;;;;;;4964687;28;20065;-88
2023/09/07 11:09:10;;;;;;;4.95;3.88;;;25.30;99.90;;;;;;4948135;29;20070;-88
2023/09/07 11:11:36;;;;;;;7.90;4.10;;;25.30;99.90;;;;;;4958646;29;20118;-86
2023/09/07 11:14:07;;;;;;;5.22;4.20;;;25.30;99.90;;;;;;4966494;29;20039;-88
2023/09/07 11:16:48;;;;;;;4.82;4.00;;;25.40;99.90;;;;;;4961728;29;20091;-91
2023/09/07 11:19:15;;;;;;;4.85;4.10;;;25.40;99.90;;;;;;4944116;29;20027;-89
2023/09/07 11:21:40;;;;;;;4.53;4.00;;;25.50;99.90;;;;;;4939678;29;20112;-86
2023/09/07 11:24:08;;;;;;;6.88;4.43;;;25.50;99.90;;;;;;4951001;29;20530;-90
2023/09/07 11:26:43;;;;;;;4.82;4.05;;;25.60;99.90;;;;;;4940914;29;20506;-87
2023/09/07 11:29:09;;;;;;;5.13;4.60;;;25.60;99.90;;;;;;4952592;29;20046;-92
2023/09/07 11:31:35;;;;;;;6.10;4.75;;;25.70;99.90;;;;;;4938669;29;20024;-91
2023/09/07 11:34:00;;;;;;;5.10;4.60;;;25.70;99.90;;;;;;4938379;29;20369;-92
2023/09/07 11:36:27;;;;;;;10.15;4.95;;;25.80;99.90;;;;;;4937775;29;20380;-92
2023/09/07 11:38:53;;;;;;;5.03;3.85;;;25.90;99.90;;;;;;4936917;29;20413;-93
2023/09/07 11:41:18;;;;;;;6.35;4.32;;;26.00;99.90;;;;;;4937848;29;20094;-94
2023/09/07 11:43:45;;;;;;;4.35;3.95;;;26.10;99.90;;;;;;4939888;29;20472;-92
2023/09/07 11:46:10;;;;;;;4.57;4.18;;;26.20;99.90;;;;;;4940684;29;20035;-93
2023/09/07 11:48:36;;;;;;;8.35;4.45;;;26.20;99.90;;;;;;4946009;29;20055;-92
2023/09/07 11:51:02;;;;;;;5.50;3.83;;;26.30;99.90;;;;;;4937222;29;20314;-89
2023/09/07 11:53:27;;;;;;;8.52;4.30;;;26.30;99.90;;;;;;4942318;29;20026;-91
2023/09/07 11:55:53;;;;;;;12.77;4.95;;;26.30;99.90;;;;;;4954743;29;20043;-90
2023/09/07 11:58:19;;;;;;;6.50;4.13;;;26.40;99.90;;;;;;4955483;29;20471;-91
2023/09/07 12:00:46;;;;;;;4.82;3.70;;;26.50;99.90;;;;;;4954283;29;20038;-91
2023/09/07 12:03:12;;;;;;;4.32;3.45;;;26.50;99.90;;;;;;4955256;29;20107;-90
2023/09/07 12:05:39;;;;;;;8.70;4.32;;;26.50;99.90;;;;;;4949807;29;20054;-90
2023/09/07 12:08:05;;;;;;;7.25;4.00;;;26.60;99.90;;;;;;4945292;29;20028;-91
2023/09/07 12:10:31;;;;;;;4.70;3.53;;;26.70;99.90;;;;;;4973320;28;20117;-90
2023/09/07 12:12:57;;;;;;;5.70;4.22;;;26.80;99.90;;;;;;4963195;29;20031;-91
2023/09/07 12:15:22;;;;;;;4.50;4.07;;;26.80;99.90;;;;;;4951570;29;20036;-91
2023/09/07 12:17:49;;;;;;;10.07;3.83;;;26.80;99.90;;;;;;4939832;29;20159;-92
2023/09/07 12:20:14;;;;;;;6.57;4.95;;;26.90;99.90;;;;;;4955151;29;20027;-89
2023/09/07 12:22:40;;;;;;;5.15;4.15;;;26.90;99.90;;;;;;4959167;29;20484;-90
2023/09/07 12:25:07;;;;;;;6.68;3.92;;;26.90;99.90;;;;;;4959491;29;20034;-89
2023/09/07 12:27:35;;;;;;;4.78;3.78;;;27.00;99.90;;;;;;4959809;29;20059;-89
2023/09/07 12:30:02;;;;;;;5.82;4.00;;;27.00;99.90;;;;;;4957065;29;20054;-89
2023/09/07 12:32:28;;;;;;;4.50;4.15;;;27.10;99.90;;;;;;4942248;29;20078;-90
2023/09/07 12:34:53;;;;;;;3.75;3.47;;;27.10;99.90;;;;;;4957361;29;20030;-91
2023/09/07 12:37:23;;;;;;;5.22;3.50;;;27.20;99.90;;;;;;4947849;29;20090;-90
2023/09/07 12:39:49;;;;;;;6.40;3.50;;;27.20;99.90;;;;;;4957337;29;20035;-90